createdAt,value
2023-07-12T14:01:26.295Z,76.89
2023-07-12T14:03:55.120Z,77.38
2023-07-12T14:06:39.278Z,76.74
2023-07-12T14:09:11.234Z,76.80
2023-07-12T14:11:38.270Z,74.85
2023-07-12T14:14:05.094Z,71.25
2023-07-12T14:16:31.871Z,70.12
2023-07-12T14:18:58.524Z,66.52
2023-07-12T14:21:25.232Z,65.72
2023-07-12T14:23:51.978Z,67.02
2023-07-12T14:26:25.210Z,67.52
2023-07-12T14:28:58.403Z,66.82
2023-07-12T14:31:28.008Z,63.89
2023-07-12T14:33:55.176Z,61.39
2023-07-12T14:36:24.686Z,59.51
2023-07-12T14:38:51.234Z,56.08
2023-07-12T14:41:28.599Z,56.17
2023-07-12T14:43:58.937Z,56.28
2023-07-12T14:46:25.731Z,55.23
2023-07-12T14:48:52.519Z,54.56
2023-07-12T14:51:22.024Z,54.99
2023-07-12T14:53:49.285Z,55.66
2023-07-12T14:56:16.904Z,55.97
2023-07-12T14:58:44.932Z,55.32
2023-07-12T15:01:26.902Z,56.27
2023-07-12T15:03:55.038Z,55.84
2023-07-12T15:06:22.844Z,56.43
2023-07-12T15:08:51.291Z,56.21
2023-07-12T15:11:21.926Z,55.84
2023-07-12T15:13:49.600Z,56.04
2023-07-12T15:16:22.549Z,55.97
2023-07-12T15:18:50.137Z,54.92
2023-07-12T15:21:22.940Z,54.84
2023-07-12T15:23:50.697Z,54.21
2023-07-12T15:26:18.461Z,54.27
2023-07-12T15:28:45.527Z,53.89
2023-07-12T15:31:23.237Z,53.17
2023-07-12T15:33:51.604Z,51.65
2023-07-12T15:36:19.070Z,51.36
2023-07-12T15:38:50.784Z,51.49
2023-07-12T15:41:25.675Z,51.85
2023-07-12T15:43:55.155Z,51.51
2023-07-12T15:46:23.566Z,51.11
2023-07-12T15:48:50.299Z,50.75
2023-07-12T15:51:26.737Z,49.56
2023-07-12T15:53:55.266Z,49.28
2023-07-12T15:56:26.574Z,48.36
2023-07-12T15:58:53.511Z,47.34
2023-07-12T16:01:28.726Z,46.74
2023-07-12T16:03:56.728Z,45.74
2023-07-12T16:06:24.488Z,45.30
2023-07-12T16:08:53.178Z,44.36
2023-07-12T16:11:22.891Z,43.41
2023-07-12T16:13:59.828Z,43.27
2023-07-12T16:16:29.571Z,43.00
2023-07-12T16:18:56.320Z,42.39
2023-07-12T16:21:28.766Z,41.33
2023-07-12T16:23:57.413Z,41.07
2023-07-12T16:26:29.756Z,40.28
2023-07-12T16:28:57.447Z,39.49
2023-07-12T16:31:23.983Z,39.66
2023-07-12T16:33:55.508Z,39.43
2023-07-12T16:36:23.625Z,39.55
2023-07-12T16:38:51.127Z,39.86
2023-07-12T16:41:25.445Z,39.35
2023-07-12T16:43:52.670Z,38.91
2023-07-12T16:46:20.528Z,39.23
2023-07-12T16:48:48.038Z,38.73
2023-07-12T16:51:28.075Z,37.97
2023-07-12T16:53:55.137Z,38.04
2023-07-12T16:56:23.604Z,38.18
2023-07-12T16:58:50.569Z,38.51
2023-07-12T17:01:23.088Z,38.15
2023-07-12T17:03:50.412Z,37.59
2023-07-12T17:06:17.334Z,37.86
2023-07-12T17:08:44.389Z,38.46
2023-07-12T17:11:16.388Z,39.09
2023-07-12T17:13:43.025Z,39.86
2023-07-12T17:16:12.826Z,40.26
2023-07-12T17:18:39.794Z,40.95
2023-07-12T17:21:11.470Z,41.47
2023-07-12T17:23:38.709Z,42.02
2023-07-12T17:26:05.451Z,42.60
2023-07-12T17:28:32.305Z,43.26
2023-07-12T17:31:08.772Z,44.12
2023-07-12T17:33:36.869Z,44.87
2023-07-12T17:36:04.939Z,45.31
2023-07-12T17:38:31.505Z,45.86
2023-07-12T17:40:58.232Z,46.20
2023-07-12T17:43:30.570Z,46.69
2023-07-12T17:45:57.878Z,47.69
2023-07-12T17:48:25.557Z,49.11
2023-07-12T17:50:58.438Z,50.67
2023-07-12T17:53:25.156Z,51.53
2023-07-12T17:55:56.921Z,51.46
2023-07-12T17:58:25.041Z,52.55
2023-07-12T18:00:54.017Z,53.10
2023-07-12T18:03:28.635Z,53.93
2023-07-12T18:05:55.493Z,54.48
2023-07-12T18:08:22.516Z,55.59
2023-07-12T18:10:52.367Z,57.60
2023-07-12T18:13:21.609Z,57.35
2023-07-12T18:15:49.104Z,58.11
2023-07-12T18:18:16.109Z,59.12
2023-07-12T18:20:42.756Z,59.93
2023-07-12T18:23:13.930Z,60.68
2023-07-12T18:25:40.724Z,61.32
2023-07-12T18:28:07.364Z,61.29
2023-07-12T18:30:34.325Z,61.93
2023-07-12T18:33:01.110Z,62.37
2023-07-12T18:35:28.237Z,62.92
2023-07-12T18:37:55.148Z,63.65
2023-07-12T18:40:24.993Z,64.05
2023-07-12T18:42:52.034Z,63.99
2023-07-12T18:45:33.524Z,66.16
2023-07-12T18:48:00.467Z,66.41
2023-07-12T18:50:27.838Z,66.79
2023-07-12T18:52:54.514Z,67.26
2023-07-12T18:55:21.221Z,67.73
2023-07-12T18:57:48.080Z,68.82
2023-07-12T19:00:14.923Z,69.58
2023-07-12T19:02:41.520Z,70.51
2023-07-12T19:05:23.504Z,71.89
2023-07-12T19:07:50.722Z,71.92
2023-07-12T19:10:22.322Z,71.80
2023-07-12T19:12:51.176Z,72.28
2023-07-12T19:15:22.429Z,72.78
2023-07-12T19:17:49.473Z,73.38
2023-07-12T19:20:18.182Z,73.42
2023-07-12T19:22:45.693Z,73.79
2023-07-12T19:25:24.383Z,73.86
2023-07-12T19:27:52.493Z,77.18
2023-07-12T19:30:23.295Z,79.41
2023-07-12T19:32:50.400Z,78.09
2023-07-12T19:35:30.736Z,77.77
2023-07-12T19:37:57.464Z,78.05
2023-07-12T19:40:26.026Z,78.45
2023-07-12T19:42:52.674Z,78.81
2023-07-12T19:45:22.930Z,79.23
2023-07-12T19:47:51.036Z,80.18
2023-07-12T19:50:17.647Z,81.62
2023-07-12T19:52:44.221Z,82.75
2023-07-12T19:55:23.909Z,82.51
2023-07-12T19:57:50.773Z,82.31
2023-07-12T20:00:17.831Z,81.84
2023-07-12T20:02:44.668Z,82.74
2023-07-12T20:05:12.686Z,82.96
2023-07-12T20:07:40.611Z,83.04
2023-07-12T20:10:08.332Z,83.45
2023-07-12T20:12:36.061Z,84.14
2023-07-12T20:15:02.703Z,84.87
2023-07-12T20:17:29.293Z,85.12
2023-07-12T20:19:55.991Z,85.01
2023-07-12T20:22:22.786Z,85.28
2023-07-12T20:24:49.882Z,86.14
2023-07-12T20:27:16.730Z,86.90
2023-07-12T20:29:43.370Z,87.64
2023-07-12T20:34:36.760Z,89.82
2023-07-12T20:37:03.615Z,89.94
2023-07-12T20:39:30.259Z,90.13
2023-07-12T20:41:56.792Z,90.35
2023-07-12T20:44:23.541Z,90.56
2023-07-12T20:46:50.315Z,91.20
2023-07-12T20:49:17.464Z,92.23
2023-07-12T20:51:44.106Z,93.14
2023-07-12T20:54:11.109Z,92.75
2023-07-12T20:56:37.779Z,93.14
2023-07-12T20:59:04.741Z,93.29
2023-07-12T21:01:31.419Z,93.77
2023-07-12T21:03:58.240Z,95.93
2023-07-12T21:06:28.274Z,98.54
2023-07-12T21:08:56.252Z,99.97
2023-07-12T21:11:23.088Z,99.35
2023-07-12T21:13:49.726Z,99.09
2023-07-12T21:16:18.227Z,99.04
2023-07-12T21:18:45.642Z,99.39
2023-07-12T21:21:12.823Z,99.22
2023-07-12T21:23:40.979Z,99.68
2023-07-12T21:26:08.827Z,99.75
2023-07-12T21:28:36.345Z,99.74
2023-07-12T21:31:04.039Z,99.86
2023-07-12T21:33:31.185Z,99.88
2023-07-12T21:35:58.862Z,100.00
2023-07-12T21:38:27.434Z,100.00
2023-07-12T21:41:05.839Z,100.00
2023-07-12T21:43:32.598Z,100.00
2023-07-12T21:45:59.563Z,100.00
2023-07-12T21:48:26.875Z,100.00
2023-07-12T21:50:55.514Z,100.00
2023-07-12T21:53:22.662Z,100.00
2023-07-12T21:55:49.916Z,100.00
2023-07-12T21:58:17.940Z,100.00
2023-07-12T22:00:45.887Z,100.00
2023-07-12T22:03:13.574Z,100.00
2023-07-12T22:05:43.437Z,100.00
2023-07-12T22:08:10.227Z,100.00
2023-07-12T22:10:37.269Z,100.00
2023-07-12T22:13:04.149Z,100.00
2023-07-12T22:15:31.273Z,100.00
2023-07-12T22:17:58.422Z,100.00
2023-07-12T22:20:25.953Z,100.00
2023-07-12T22:22:52.767Z,100.00
2023-07-12T22:25:20.413Z,100.00
2023-07-12T22:27:47.847Z,100.00
2023-07-12T22:30:28.570Z,100.00
2023-07-12T22:32:55.329Z,100.00
2023-07-12T22:35:23.874Z,100.00
2023-07-12T22:37:52.789Z,100.00
2023-07-12T22:40:20.032Z,100.00
2023-07-12T22:42:48.210Z,100.00
2023-07-12T22:45:15.259Z,100.00
2023-07-12T22:47:42.081Z,100.00
2023-07-12T22:50:09.560Z,100.00
2023-07-12T22:52:36.835Z,100.00
2023-07-12T22:55:04.854Z,100.00
2023-07-12T22:57:32.471Z,100.00
2023-07-12T23:00:00.274Z,100.00
2023-07-12T23:02:27.212Z,100.00
2023-07-12T23:04:54.261Z,100.00
2023-07-12T23:07:20.995Z,100.00
2023-07-12T23:09:48.668Z,100.00
2023-07-12T23:12:15.833Z,100.00
2023-07-12T23:14:42.575Z,100.00
2023-07-12T23:17:09.589Z,100.00
2023-07-12T23:19:38.284Z,100.00
2023-07-12T23:22:05.702Z,100.00
2023-07-12T23:24:32.975Z,100.00
2023-07-12T23:27:00.185Z,100.00
2023-07-12T23:29:26.932Z,100.00
2023-07-12T23:31:53.580Z,100.00
2023-07-12T23:34:20.221Z,100.00
2023-07-12T23:36:46.861Z,100.00
2023-07-12T23:39:13.404Z,100.00
2023-07-12T23:41:39.996Z,100.00
2023-07-12T23:44:06.597Z,100.00
2023-07-12T23:46:33.392Z,100.00
2023-07-12T23:49:00.387Z,100.00
2023-07-12T23:51:27.344Z,100.00
2023-07-12T23:53:53.923Z,100.00
2023-07-12T23:56:20.722Z,100.00
2023-07-12T23:58:48.029Z,100.00
